Time;durP1;ratioP1;P1;durP2;ratioP2;P2;SDS_P1;SDS_P2;PMS_P1;PMS_P2;Temp;Humidity;BMP_temperature;BMP_pressure;BME280_temperature;BME280_humidity;BME280_pressure;Samples;Min_cycle;Max_cycle;Signal;HPM_P1;HPM_P2
2022/01/14 00:00:38;;;;;;;29.80;15.60;;;;;;;1.10;100.00;102206.16;5091218;28;20027;-68
2022/01/14 00:03:04;;;;;;;29.70;14.45;;;;;;;1.15;100.00;102205.47;5087748;28;20034;-68
2022/01/14 00:05:29;;;;;;;35.78;15.48;;;;;;;1.14;100.00;102194.94;5087428;28;20039;-68
2022/01/14 00:07:55;;;;;;;31.13;15.55;;;;;;;1.15;100.00;102196.75;5091934;28;20055;-68
2022/01/14 00:10:20;;;;;;;33.65;16.13;;;;;;;1.17;100.00;102200.31;5100578;28;20027;-68
2022/01/14 00:12:52;;;;;;;31.40;16.25;;;;;;;1.16;100.00;102194.19;5091127;28;20024;-68
2022/01/14 00:15:25;;;;;;;28.98;15.65;;;;;;;1.13;100.00;102203.66;5101614;28;20073;-67
2022/01/14 00:17:52;;;;;;;31.10;16.35;;;;;;;1.03;100.00;102196.25;5081621;28;20031;-67
2022/01/14 00:20:19;;;;;;;29.25;14.70;;;;;;;0.93;100.00;102178.38;5089727;28;20035;-68
2022/01/14 00:22:44;;;;;;;28.17;15.02;;;;;;;1.01;100.00;102203.13;5068013;28;20460;-68
2022/01/14 00:33:31;;;;;;;31.02;15.32;;;;;;;1.04;100.00;102198.91;5095616;28;20100;-68
2022/01/14 00:35:56;;;;;;;30.95;16.80;;;;;;;1.06;100.00;102197.25;5085832;28;20024;-68
2022/01/14 00:38:22;;;;;;;32.03;16.63;;;;;;;1.10;100.00;102200.91;5085419;28;20475;-68
2022/01/14 00:40:48;;;;;;;35.10;16.13;;;;;;;1.14;100.00;102205.41;5086540;28;20024;-68
2022/01/14 00:43:13;;;;;;;31.73;17.05;;;;;;;1.15;100.00;102207.22;5086774;28;20063;-68
2022/01/14 00:45:39;;;;;;;35.72;17.08;;;;;;;1.17;100.00;102195.09;5089723;28;20032;-68
2022/01/14 00:48:05;;;;;;;35.53;17.27;;;;;;;1.18;100.00;102196.88;5087220;28;20574;-68
2022/01/14 00:50:33;;;;;;;33.28;16.33;;;;;;;1.13;100.00;102182.69;5087777;28;20063;-68
2022/01/14 00:52:59;;;;;;;33.20;17.42;;;;;;;1.22;100.00;102198.75;5087683;28;20028;-68
2022/01/14 00:55:39;;;;;;;34.75;17.80;;;;;;;1.24;100.00;102192.75;5086730;28;20369;-68
2022/01/14 01:00:49;;;;;;;30.42;17.90;;;;;;;1.32;100.00;102196.56;5087060;28;20101;-67
2022/01/14 01:03:14;;;;;;;30.45;16.38;;;;;;;1.34;100.00;102188.75;5068799;28;20028;-67
2022/01/14 01:05:40;;;;;;;34.38;17.90;;;;;;;1.32;100.00;102187.81;5088256;28;20120;-67
2022/01/14 01:08:10;;;;;;;31.67;17.65;;;;;;;1.31;100.00;102184.31;5087681;28;20400;-67
2022/01/14 01:10:46;;;;;;;35.67;18.27;;;;;;;1.30;100.00;102189.50;5086267;28;20039;-67
2022/01/14 01:13:19;;;;;;;35.83;16.33;;;;;;;1.20;100.00;102176.84;5086276;28;20494;-67
2022/01/14 01:15:45;;;;;;;30.05;16.65;;;;;;;1.25;100.00;102198.91;5091293;28;20083;-68
2022/01/14 01:18:11;;;;;;;31.98;17.88;;;;;;;1.18;100.00;102199.47;5090563;28;20020;-68
2022/01/14 01:20:37;;;;;;;31.48;18.80;;;;;;;0.77;100.00;102129.72;5090558;28;20403;-68
2022/01/14 01:23:04;;;;;;;29.42;17.25;;;;;;;1.12;100.00;102207.09;5091477;28;20047;-68
2022/01/14 01:25:39;;;;;;;37.47;18.35;;;;;;;1.12;100.00;102202.75;5100257;28;20035;-68
2022/01/14 01:28:04;;;;;;;30.05;16.95;;;;;;;1.07;100.00;102192.94;5110249;28;20387;-68
2022/01/14 01:33:25;;;;;;;38.45;19.67;;;;;;;1.21;100.00;102207.47;5111147;28;20032;-67
2022/01/14 01:35:50;;;;;;;35.53;19.50;;;;;;;1.18;100.00;102189.00;5110913;28;20024;-67
2022/01/14 01:38:17;;;;;;;39.03;19.30;;;;;;;1.30;100.00;102207.84;5092546;28;20528;-67
2022/01/14 01:40:48;;;;;;;38.42;19.95;;;;;;;1.35;100.00;102217.66;5111560;28;20027;-67
2022/01/14 01:43:15;;;;;;;37.90;20.65;;;;;;;1.42;100.00;102228.41;5110812;28;20563;-67
2022/01/14 01:45:41;;;;;;;34.80;19.55;;;;;;;1.48;100.00;102218.13;5110403;28;20240;-67
2022/01/14 01:48:07;;;;;;;40.47;22.15;;;;;;;1.51;100.00;102224.41;5097937;28;20028;-67
2022/01/14 01:50:36;;;;;;;43.78;23.10;;;;;;;1.50;100.00;102222.59;5104890;28;20035;-67
2022/01/14 01:53:02;;;;;;;44.38;21.17;;;;;;;1.65;100.00;102238.94;5110716;28;20023;-67
2022/01/14 01:55:28;;;;;;;40.28;19.85;;;;;;;1.70;100.00;102242.63;5110942;28;20055;-67
2022/01/14 01:57:53;;;;;;;43.50;20.40;;;;;;;1.80;100.00;102242.13;5110732;28;20560;-67
2022/01/14 02:00:24;;;;;;;45.53;21.50;;;;;;;1.92;100.00;102240.00;5092980;28;20375;-68
2022/01/14 02:02:50;;;;;;;40.53;20.50;;;;;;;2.00;100.00;102243.78;5111413;28;20119;-67
2022/01/14 02:05:16;;;;;;;44.67;22.80;;;;;;;2.06;100.00;102238.75;5111159;28;20031;-67
2022/01/14 02:07:43;;;;;;;39.70;23.08;;;;;;;2.12;100.00;102241.63;5111242;28;20110;-67
2022/01/14 02:10:09;;;;;;;43.50;21.30;;;;;;;2.08;100.00;102229.22;5111218;28;20031;-67
2022/01/14 02:12:37;;;;;;;41.92;21.38;;;;;;;2.16;100.00;102235.63;5110725;28;20129;-67
2022/01/14 02:15:14;;;;;;;44.15;20.92;;;;;;;2.15;100.00;102225.97;5093170;28;20028;-67
2022/01/14 02:23:08;;;;;;;39.45;20.35;;;;;;;2.30;100.00;102228.25;5093057;28;20042;-67
2022/01/14 02:25:34;;;;;;;41.55;19.63;;;;;;;2.33;100.00;102218.78;5111155;28;20032;-67
2022/01/14 02:28:06;;;;;;;43.13;20.55;;;;;;;2.32;100.00;102216.97;5109962;28;20389;-67
2022/01/14 02:30:33;;;;;;;39.83;20.38;;;;;;;2.42;100.00;102205.94;5110707;28;20023;-67
2022/01/14 02:32:58;;;;;;;36.08;20.15;;;;;;;2.34;100.00;102199.53;5110369;28;20023;-67
2022/01/14 02:35:24;;;;;;;41.58;21.80;;;;;;;2.33;100.00;102208.25;5110826;28;20096;-67
2022/01/14 02:37:50;;;;;;;39.95;21.95;;;;;;;2.37;100.00;102197.00;5107678;28;20011;-68
2022/01/14 02:40:17;;;;;;;42.83;20.48;;;;;;;2.38;100.00;102184.78;5110391;28;20038;-68
2022/01/14 02:42:42;;;;;;;53.70;21.70;;;;;;;2.45;100.00;102185.06;5110524;28;20037;-68
2022/01/14 02:45:11;;;;;;;44.10;21.08;;;;;;;2.43;100.00;102186.75;5111010;28;20438;-68
2022/01/14 02:47:36;;;;;;;38.38;19.90;;;;;;;2.26;100.00;102174.75;5110479;28;20387;-68
2022/01/14 02:50:04;;;;;;;49.38;21.58;;;;;;;2.34;100.00;102178.53;5109539;28;20027;-68
2022/01/14 02:52:54;;;;;;;47.65;21.10;;;;;;;2.35;100.00;102177.72;5110672;28;20110;-68
2022/01/14 02:55:23;;;;;;;35.60;20.70;;;;;;;2.27;100.00;102168.66;5110340;28;20050;-67
2022/01/14 02:57:52;;;;;;;40.45;20.75;;;;;;;2.20;100.00;102186.75;5077938;28;20036;-68
2022/01/14 03:00:22;;;;;;;42.45;20.08;;;;;;;2.38;100.00;102172.56;5089065;28;20342;-67
2022/01/14 03:02:51;;;;;;;45.40;20.58;;;;;;;2.44;100.00;102172.75;5089657;28;20129;-67
2022/01/14 03:05:18;;;;;;;40.95;21.15;;;;;;;2.32;100.00;102143.44;5090923;28;20052;-68
2022/01/14 03:07:44;;;;;;;44.15;22.38;;;;;;;2.40;100.00;102164.72;5090607;28;20038;-67
2022/01/14 03:10:12;;;;;;;39.60;20.98;;;;;;;2.40;100.00;102162.09;5089748;28;20024;-68
2022/01/14 03:12:39;;;;;;;53.28;23.80;;;;;;;2.38;100.00;102158.53;5088777;28;20525;-68
2022/01/14 03:15:05;;;;;;;44.65;19.35;;;;;;;2.34;100.00;102154.91;5088692;28;20464;-67
2022/01/14 03:17:31;;;;;;;54.28;24.30;;;;;;;2.33;100.00;102140.00;5089344;28;20020;-68
2022/01/14 03:19:59;;;;;;;46.53;23.45;;;;;;;2.33;100.00;102147.88;5105787;28;20030;-67
2022/01/14 03:22:34;;;;;;;57.08;26.67;;;;;;;2.33;100.00;102147.88;5109908;28;20031;-68
2022/01/14 03:27:49;;;;;;;40.72;20.98;;;;;;;2.34;100.00;102141.78;5109751;28;20043;-68
2022/01/14 03:30:14;;;;;;;43.88;21.60;;;;;;;2.22;100.00;102140.47;5090369;28;20032;-68
2022/01/14 03:32:40;;;;;;;42.42;22.65;;;;;;;2.19;100.00;102133.38;5109375;28;20027;-67
2022/01/14 03:35:08;;;;;;;47.25;23.33;;;;;;;2.20;100.00;102143.03;5109435;28;20544;-68
2022/01/14 03:37:34;;;;;;;68.57;29.48;;;;;;;2.22;100.00;102141.38;5109016;28;20039;-67
2022/01/14 03:39:59;;;;;;;88.22;39.08;;;;;;;2.16;100.00;102148.09;5108343;28;20032;-67
2022/01/14 03:42:24;;;;;;;51.10;23.38;;;;;;;2.27;100.00;102136.28;5103914;28;20019;-67
2022/01/14 03:44:50;;;;;;;42.25;20.92;;;;;;;2.21;100.00;102138.66;5088831;28;20044;-68
2022/01/14 03:47:15;;;;;;;50.83;21.05;;;;;;;2.29;100.00;102140.72;5088631;28;20043;-68
2022/01/14 03:49:41;;;;;;;42.60;21.45;;;;;;;2.28;100.00;102131.06;5088458;28;20032;-68
2022/01/14 03:52:06;;;;;;;43.33;20.38;;;;;;;2.12;100.00;102123.50;5089112;28;20476;-67
2022/01/14 03:54:32;;;;;;;48.65;21.35;;;;;;;2.18;100.00;102143.81;5088630;28;20035;-68
2022/01/14 03:56:57;;;;;;;45.78;22.08;;;;;;;2.06;100.00;102135.53;5097442;28;20048;-68
2022/01/14 03:59:23;;;;;;;49.13;21.65;;;;;;;1.95;100.00;102124.63;5108761;28;20552;-68
2022/01/14 04:01:48;;;;;;;48.83;26.15;;;;;;;1.97;100.00;102128.22;5109196;28;20054;-67
2022/01/14 04:04:14;;;;;;;41.67;21.25;;;;;;;1.98;100.00;102132.63;5089538;28;20023;-68
2022/01/14 04:06:39;;;;;;;46.42;22.77;;;;;;;1.93;100.00;102130.69;5091252;28;20052;-68
2022/01/14 04:09:05;;;;;;;51.40;22.45;;;;;;;1.86;100.00;102113.81;5088590;28;20096;-68
2022/01/14 04:11:33;;;;;;;45.15;21.70;;;;;;;1.84;100.00;102133.88;5088223;28;20035;-67
2022/01/14 04:14:08;;;;;;;42.25;21.80;;;;;;;1.82;100.00;102134.63;5088595;28;20523;-68
2022/01/14 04:16:34;;;;;;;47.75;22.73;;;;;;;1.78;100.00;102131.00;5088457;28;20048;-68
2022/01/14 04:18:59;;;;;;;43.20;19.55;;;;;;;1.80;100.00;102131.97;5088345;28;20036;-68
2022/01/14 04:21:26;;;;;;;48.20;21.80;;;;;;;1.78;100.00;102135.38;5088344;28;20035;-68
2022/01/14 04:23:51;;;;;;;47.40;20.00;;;;;;;1.61;100.00;102129.50;5088509;28;20030;-67
2022/01/14 04:26:17;;;;;;;37.95;18.83;;;;;;;1.55;100.00;102125.78;5088444;28;20466;-68
2022/01/14 04:28:43;;;;;;;43.42;20.63;;;;;;;1.54;100.00;102137.06;5102597;28;20475;-67
2022/01/14 04:31:09;;;;;;;45.15;18.95;;;;;;;1.52;100.00;102129.16;5090965;28;20039;-68
2022/01/14 04:33:35;;;;;;;45.50;21.38;;;;;;;1.46;100.00;102131.56;5103693;28;20464;-68
2022/01/14 04:36:02;;;;;;;42.92;20.42;;;;;;;1.23;100.00;102130.69;5109179;28;20035;-68
2022/01/14 04:38:31;;;;;;;44.53;20.23;;;;;;;1.27;100.00;102113.34;5108634;28;20108;-68
2022/01/14 04:40:56;;;;;;;47.05;20.45;;;;;;;1.25;100.00;102136.88;5086456;28;20023;-68
2022/01/14 04:43:22;;;;;;;47.67;18.92;;;;;;;1.40;100.00;102130.44;5108390;28;20031;-68
2022/01/14 04:48:32;;;;;;;46.83;19.02;;;;;;;1.43;100.00;102110.47;5108790;28;20422;-68
2022/01/14 04:50:59;;;;;;;54.05;20.52;;;;;;;1.62;100.00;102133.91;5111606;28;20031;-69
2022/01/14 04:53:26;;;;;;;42.70;20.90;;;;;;;1.72;100.00;102136.03;5112552;28;20031;-68
2022/01/14 04:55:52;;;;;;;46.08;19.88;;;;;;;1.82;100.00;102137.25;5112373;28;20019;-68
2022/01/14 04:58:18;;;;;;;46.28;18.60;;;;;;;1.83;100.00;102123.31;5094624;28;20569;-68
2022/01/14 05:00:44;;;;;;;37.95;17.52;;;;;;;1.75;100.00;102130.91;5092099;28;20047;-68
2022/01/14 05:03:09;;;;;;;46.15;17.27;;;;;;;1.54;100.00;102103.88;5092339;28;20032;-68
2022/01/14 05:05:39;;;;;;;34.55;18.52;;;;;;;1.30;100.00;102076.78;5091547;28;20457;-68
2022/01/14 05:08:10;;;;;;;35.83;18.52;;;;;;;1.51;100.00;102124.75;5092249;28;20019;-68
2022/01/14 05:10:48;;;;;;;36.13;17.52;;;;;;;1.42;100.00;102111.28;5073672;28;20055;-68
2022/01/14 05:13:13;;;;;;;33.42;16.38;;;;;;;1.44;100.00;102112.25;5109932;28;20027;-68
2022/01/14 05:15:39;;;;;;;55.65;20.05;;;;;;;1.28;100.00;102095.06;5112589;28;20059;-68
2022/01/14 05:18:05;;;;;;;40.40;17.80;;;;;;;1.34;100.00;102102.25;5084549;28;20043;-68
2022/01/14 05:20:30;;;;;;;38.58;18.40;;;;;;;1.44;100.00;102116.59;5091607;28;20032;-68
2022/01/14 05:22:55;;;;;;;45.53;18.73;;;;;;;1.33;100.00;102100.47;5102558;28;20416;-68
2022/01/14 05:25:21;;;;;;;33.90;18.40;;;;;;;1.27;100.00;102113.34;5093457;28;20032;-68
2022/01/14 05:27:46;;;;;;;38.70;17.38;;;;;;;1.17;100.00;102109.47;5112372;28;20031;-68
2022/01/14 05:30:13;;;;;;;45.63;18.13;;;;;;;1.21;100.00;102121.88;5111487;28;20467;-68
2022/01/14 05:32:46;;;;;;;45.95;19.52;;;;;;;1.37;100.00;102115.47;5112232;28;20028;-68
2022/01/14 05:35:13;;;;;;;36.53;16.98;;;;;;;1.36;100.00;102118.94;5112049;28;20038;-69
2022/01/14 05:37:38;;;;;;;48.53;25.83;;;;;;;1.25;100.00;102115.03;5112467;28;20037;-68
2022/01/14 05:40:04;;;;;;;41.25;17.90;;;;;;;1.17;100.00;102104.22;5093163;28;20554;-68
2022/01/14 05:42:33;;;;;;;52.13;17.63;;;;;;;1.32;100.00;102114.41;5108262;28;20027;-68
2022/01/14 05:45:00;;;;;;;47.38;18.88;;;;;;;1.34;100.00;102107.50;5112091;28;20072;-68
2022/01/14 05:47:25;;;;;;;44.45;17.27;;;;;;;1.40;100.00;102114.72;5109596;28;20053;-68
2022/01/14 05:49:51;;;;;;;37.60;17.80;;;;;;;1.26;100.00;102086.25;5094917;28;20028;-69
2022/01/14 05:52:17;;;;;;;35.88;17.58;;;;;;;1.38;100.00;102108.50;5090549;28;20028;-68
2022/01/14 05:54:43;;;;;;;40.42;17.08;;;;;;;1.35;100.00;102101.44;5091129;28;20020;-69
2022/01/14 05:57:08;;;;;;;36.47;19.05;;;;;;;1.14;100.00;102084.88;5099543;28;20039;-69
2022/01/14 05:59:34;;;;;;;41.28;19.15;;;;;;;1.22;100.00;102100.06;5111093;28;20107;-68
2022/01/14 06:01:59;;;;;;;47.85;18.13;;;;;;;1.16;100.00;102085.84;5110243;28;20041;-68
2022/01/14 06:04:24;;;;;;;45.45;17.55;;;;;;;1.20;100.00;102098.22;5093297;28;20545;-69
2022/01/14 06:06:50;;;;;;;35.83;17.52;;;;;;;1.16;100.00;102109.41;5110922;28;20382;-66
2022/01/14 06:09:15;;;;;;;40.10;19.63;;;;;;;1.20;100.00;102095.63;5111285;28;20022;-68
2022/01/14 06:11:41;;;;;;;43.30;17.27;;;;;;;1.16;100.00;102101.56;5108202;28;20790;-68
2022/01/14 06:14:06;;;;;;;41.33;19.10;;;;;;;1.20;100.00;102106.09;5111260;28;20051;-67
2022/01/14 06:16:31;;;;;;;35.72;18.77;;;;;;;1.30;100.00;102110.84;5110694;28;20043;-68
2022/01/14 06:18:57;;;;;;;66.40;30.95;;;;;;;1.29;100.00;102106.44;5094292;28;20486;-68
2022/01/14 06:21:22;;;;;;;48.88;24.85;;;;;;;1.38;100.00;102104.16;5090959;28;20028;-68
2022/01/14 06:23:48;;;;;;;41.15;23.92;;;;;;;1.39;100.00;102103.31;5090553;28;20362;-68
2022/01/14 06:26:13;;;;;;;46.65;25.45;;;;;;;1.38;100.00;102104.16;5090589;28;20027;-68
2022/01/14 06:28:42;;;;;;;40.63;18.67;;;;;;;1.40;100.00;102089.38;5111363;28;20028;-68
2022/01/14 06:31:07;;;;;;;38.42;18.80;;;;;;;1.42;100.00;102092.06;5101892;28;20409;-68
2022/01/14 06:33:33;;;;;;;38.45;19.02;;;;;;;1.37;100.00;102107.59;5090184;28;20024;-68
2022/01/14 06:35:58;;;;;;;42.03;17.40;;;;;;;1.22;100.00;102099.16;5093253;28;20028;-68
2022/01/14 06:38:24;;;;;;;38.15;18.92;;;;;;;1.04;100.00;102103.69;5090032;28;20085;-68
2022/01/14 06:40:49;;;;;;;47.10;23.70;;;;;;;1.18;100.00;102108.66;5092843;28;20039;-68
2022/01/14 06:43:15;;;;;;;43.63;21.70;;;;;;;1.18;100.00;102115.63;5090133;28;20408;-68
2022/01/14 06:45:42;;;;;;;42.63;16.25;;;;;;;1.19;100.00;102109.53;5090648;28;20028;-69
2022/01/14 06:48:08;;;;;;;58.60;30.58;;;;;;;1.16;100.00;102109.41;5090499;28;20024;-68
2022/01/14 06:50:33;;;;;;;55.10;25.90;;;;;;;1.18;100.00;102113.00;5089538;28;20360;-68
2022/01/14 06:52:59;;;;;;;42.88;23.67;;;;;;;1.20;100.00;102111.34;5089607;28;20027;-68
2022/01/14 06:55:24;;;;;;;34.00;17.92;;;;;;;1.24;100.00;102115.84;5090041;28;20065;-68
2022/01/14 06:57:50;;;;;;;45.92;19.05;;;;;;;1.28;100.00;102108.19;5103561;28;20075;-67
2022/01/14 07:00:17;;;;;;;47.17;18.23;;;;;;;1.30;100.00;102105.63;5110714;28;20023;-67
2022/01/14 07:02:43;;;;;;;38.60;17.77;;;;;;;1.41;100.00;102101.66;5089933;28;20432;-67
2022/01/14 07:05:09;;;;;;;72.90;22.73;;;;;;;1.40;100.00;102109.47;5109057;28;20028;-68
2022/01/14 07:07:36;;;;;;;54.22;19.13;;;;;;;1.38;100.00;102097.19;5109295;28;20049;-68
2022/01/14 07:10:03;;;;;;;45.97;18.55;;;;;;;1.40;100.00;102105.09;5099387;28;20141;-67
2022/01/14 07:12:32;;;;;;;76.25;23.95;;;;;;;1.51;100.00;102103.78;5098906;28;20035;-67
2022/01/14 07:14:57;;;;;;;118.78;36.45;;;;;;;1.54;100.00;102103.88;5098760;28;20023;-68
2022/01/14 07:17:24;;;;;;;60.92;24.75;;;;;;;1.51;100.00;102108.13;5097182;28;20110;-68
2022/01/14 07:19:56;;;;;;;97.78;31.92;;;;;;;1.42;100.00;102108.66;5099071;28;20525;-67
2022/01/14 07:22:22;;;;;;;73.82;28.08;;;;;;;1.46;100.00;102110.59;5084951;28;20023;-67
2022/01/14 07:24:48;;;;;;;43.60;20.25;;;;;;;1.47;100.00;102112.34;5109520;28;20038;-67
2022/01/14 07:27:14;;;;;;;84.68;32.08;;;;;;;1.40;100.00;102102.47;5102522;28;20028;-67
2022/01/14 07:29:40;;;;;;;103.03;58.47;;;;;;;1.49;100.00;102110.69;5109200;28;20042;-66
2022/01/14 07:32:06;;;;;;;47.95;25.17;;;;;;;1.49;100.00;102115.03;5107301;28;20394;-67
2022/01/14 07:34:32;;;;;;;50.10;21.98;;;;;;;1.49;100.00;102115.03;5108299;28;20035;-67
2022/01/14 07:36:57;;;;;;;37.78;18.42;;;;;;;1.36;100.00;102092.72;5108130;28;20031;-67
2022/01/14 07:39:23;;;;;;;60.72;21.88;;;;;;;1.57;100.00;102119.72;5109285;28;20465;-67
2022/01/14 07:41:52;;;;;;;46.67;21.13;;;;;;;1.50;100.00;102112.47;5097168;28;20093;-67
2022/01/14 07:44:18;;;;;;;47.05;22.65;;;;;;;1.52;100.00;102112.53;5106928;28;20039;-67
2022/01/14 07:46:43;;;;;;;74.28;26.05;;;;;;;1.46;100.00;102120.16;5104951;28;20054;-67
2022/01/14 07:49:09;;;;;;;48.55;20.98;;;;;;;1.49;100.00;102136.00;5084895;28;20027;-67
2022/01/14 07:51:35;;;;;;;61.60;20.15;;;;;;;1.54;100.00;102145.84;5088775;28;20043;-68
2022/01/14 07:54:05;;;;;;;59.28;20.73;;;;;;;1.55;100.00;102152.88;5089975;28;20051;-67
2022/01/14 07:56:40;;;;;;;73.85;21.48;;;;;;;1.60;100.00;102153.94;5087695;28;20178;-67
2022/01/14 07:59:06;;;;;;;45.42;20.15;;;;;;;1.57;100.00;102145.97;5075205;28;20148;-67
2022/01/14 08:01:35;;;;;;;42.85;20.58;;;;;;;1.49;100.00;102136.91;5109121;28;20023;-67
2022/01/14 08:04:01;;;;;;;42.92;17.77;;;;;;;1.58;100.00;102137.28;5097045;28;20027;-67
2022/01/14 08:06:31;;;;;;;43.10;19.60;;;;;;;1.62;100.00;102147.03;5088234;28;20035;-67
2022/01/14 08:08:57;;;;;;;62.28;19.27;;;;;;;1.66;100.00;102148.94;5088680;28;20086;-67
2022/01/14 08:11:22;;;;;;;59.40;19.20;;;;;;;1.70;100.00;102147.31;5091923;28;20111;-67
2022/01/14 08:13:47;;;;;;;44.05;18.58;;;;;;;1.71;100.00;102139.50;5088622;28;20020;-67
2022/01/14 08:16:13;;;;;;;56.42;19.42;;;;;;;1.75;100.00;102143.09;5092792;28;20043;-67
2022/01/14 08:18:38;;;;;;;48.58;18.90;;;;;;;1.75;100.00;102136.16;5092700;28;20024;-67
2022/01/14 08:21:04;;;;;;;42.40;17.95;;;;;;;1.76;100.00;102137.94;5098462;28;20084;-67
2022/01/14 08:23:30;;;;;;;57.80;20.20;;;;;;;1.97;100.00;102146.59;5069661;28;20059;-67
2022/01/14 08:25:57;;;;;;;47.33;18.80;;;;;;;2.09;100.00;102149.63;5087996;28;20461;-67
2022/01/14 08:28:24;;;;;;;44.80;19.17;;;;;;;2.11;100.00;102153.22;5102524;28;20023;-67
2022/01/14 08:30:49;;;;;;;49.10;19.20;;;;;;;2.07;100.00;102142.56;5106635;28;20023;-67
2022/01/14 08:33:15;;;;;;;55.08;17.88;;;;;;;2.16;100.00;102156.88;5100011;28;20086;-67
2022/01/14 08:35:41;;;;;;;42.42;18.25;;;;;;;2.11;100.00;102149.72;5087225;28;20032;-67
2022/01/14 08:38:06;;;;;;;47.60;17.90;;;;;;;2.03;100.00;102153.75;5087658;28;20095;-67
2022/01/14 08:40:32;;;;;;;50.42;17.08;;;;;;;2.07;100.00;102156.56;5101033;28;20451;-67
2022/01/14 08:42:58;;;;;;;56.20;20.35;;;;;;;2.02;100.00;102155.53;5107848;28;20085;-67
2022/01/14 08:45:24;;;;;;;59.13;20.25;;;;;;;2.06;100.00;102149.53;5076284;28;20495;-67
2022/01/14 08:47:54;;;;;;;52.20;18.38;;;;;;;2.01;100.00;102151.09;5107992;28;20093;-67
2022/01/14 08:50:32;;;;;;;42.25;17.70;;;;;;;1.98;100.00;102151.00;5105812;28;20035;-67
2022/01/14 08:52:59;;;;;;;40.83;16.90;;;;;;;2.00;100.00;102135.28;5107615;28;20028;-67
2022/01/14 08:55:25;;;;;;;52.70;17.35;;;;;;;2.04;100.00;102134.56;5106253;28;20568;-67
2022/01/14 08:57:51;;;;;;;33.55;15.75;;;;;;;1.89;100.00;102108.69;5102934;28;20016;-67
2022/01/14 09:00:18;;;;;;;37.00;16.73;;;;;;;2.07;100.00;102146.09;5095409;28;20110;-67
2022/01/14 09:02:43;;;;;;;45.97;18.25;;;;;;;2.12;100.00;102140.97;5106395;28;20407;-67
2022/01/14 09:05:10;;;;;;;41.45;16.92;;;;;;;2.07;100.00;102138.22;5107571;28;20027;-67
2022/01/14 09:07:36;;;;;;;33.08;15.55;;;;;;;2.07;100.00;102129.44;5107964;28;20034;-67
2022/01/14 09:10:04;;;;;;;43.00;17.27;;;;;;;2.13;100.00;102138.41;5103604;28;20411;-67
2022/01/14 09:12:29;;;;;;;50.65;18.88;;;;;;;2.11;100.00;102137.47;5106902;28;20609;-67
2022/01/14 09:14:55;;;;;;;45.00;20.27;;;;;;;2.15;100.00;102139.38;5108122;28;20102;-67
2022/01/14 09:17:21;;;;;;;56.97;17.98;;;;;;;2.13;100.00;102140.13;5104252;28;20116;-67
2022/01/14 09:19:47;;;;;;;46.88;20.58;;;;;;;2.22;100.00;102141.38;5099675;28;20069;-67
2022/01/14 09:22:17;;;;;;;57.35;22.90;;;;;;;2.27;100.00;102134.50;5108926;28;20048;-67
2022/01/14 09:24:43;;;;;;;52.30;20.38;;;;;;;1.90;100.00;102135.81;5108948;28;20106;-67
2022/01/14 09:27:09;;;;;;;33.80;17.70;;;;;;;2.24;100.00;102134.41;5108644;28;20602;-67
2022/01/14 09:29:35;;;;;;;44.78;19.30;;;;;;;2.25;100.00;102130.97;5108037;28;20110;-67
2022/01/14 09:32:00;;;;;;;51.05;20.13;;;;;;;2.33;100.00;102134.75;5108114;28;20028;-67
2022/01/14 09:34:26;;;;;;;49.92;19.75;;;;;;;2.30;100.00;102123.25;5108904;28;20033;-67
2022/01/14 09:36:51;;;;;;;42.72;17.60;;;;;;;2.18;100.00;102122.81;5109537;28;20471;-67
2022/01/14 09:39:17;;;;;;;55.78;18.05;;;;;;;2.10;100.00;102114.69;5110473;28;20027;-67
2022/01/14 09:41:42;;;;;;;40.67;17.80;;;;;;;2.28;100.00;102125.81;5099624;28;20100;-67
2022/01/14 09:44:08;;;;;;;50.95;19.55;;;;;;;2.29;100.00;102132.84;5112625;28;20486;-67
2022/01/14 09:46:34;;;;;;;34.92;16.67;;;;;;;2.50;100.00;102135.31;5111799;28;20027;-67
2022/01/14 09:48:59;;;;;;;44.33;20.52;;;;;;;2.59;100.00;102139.13;5111509;28;20038;-67
2022/01/14 09:51:25;;;;;;;53.22;20.40;;;;;;;2.30;100.00;102139.91;5109523;28;20035;-67
2022/01/14 09:53:51;;;;;;;41.35;17.00;;;;;;;2.35;100.00;102145.31;5093831;28;20110;-67
2022/01/14 09:56:18;;;;;;;54.03;19.02;;;;;;;2.38;100.00;102143.69;5093259;28;20024;-67
2022/01/14 09:58:49;;;;;;;48.50;19.75;;;;;;;2.43;100.00;102147.34;5112002;28;20024;-67
2022/01/14 10:01:16;;;;;;;51.00;19.45;;;;;;;2.48;100.00;102150.13;5111177;28;20391;-67
2022/01/14 10:03:49;;;;;;;47.33;18.35;;;;;;;2.57;100.00;102151.31;5112340;28;20526;-67
2022/01/14 10:06:41;;;;;;;44.42;18.77;;;;;;;2.45;100.00;102153.56;5111184;28;20181;-67
2022/01/14 10:09:13;;;;;;;56.30;17.70;;;;;;;2.48;100.00;102158.00;5111295;28;20543;-67
2022/01/14 10:11:42;;;;;;;40.13;18.20;;;;;;;2.61;100.00;102158.47;5112687;28;20577;-67
2022/01/14 10:14:17;;;;;;;38.35;18.23;;;;;;;2.57;100.00;102142.56;5093757;28;20024;-67
2022/01/14 10:16:44;;;;;;;37.65;18.40;;;;;;;2.66;100.00;102143.75;5110939;28;20048;-67
2022/01/14 10:19:42;;;;;;;53.70;20.73;;;;;;;2.81;100.00;102147.72;5092975;28;20319;-67
2022/01/14 10:22:18;;;;;;;43.17;16.67;;;;;;;2.80;100.00;102143.31;5090084;28;20031;-67
2022/01/14 10:25:12;;;;;;;43.63;20.30;;;;;;;2.82;100.00;102131.13;5111760;28;20479;-67
2022/01/14 10:27:52;;;;;;;41.28;19.08;;;;;;;2.91;100.00;102123.53;5110939;28;20385;-68
2022/01/14 10:30:29;;;;;;;47.25;18.40;;;;;;;2.89;100.00;102146.22;5110560;28;20019;-68
2022/01/14 10:33:01;;;;;;;54.95;22.17;;;;;;;2.80;100.00;102145.94;5108340;28;20028;-68
2022/01/14 10:35:34;;;;;;;47.17;21.08;;;;;;;2.90;100.00;102141.03;5089676;28;20028;-68
2022/01/14 10:38:03;;;;;;;43.15;21.40;;;;;;;2.99;100.00;102135.16;5111751;28;20032;-68
2022/01/14 10:40:32;;;;;;;52.22;21.73;;;;;;;3.07;100.00;102134.56;5109707;28;20103;-68
2022/01/14 10:43:03;;;;;;;45.05;20.20;;;;;;;3.16;100.00;102132.25;5112125;28;20023;-68
2022/01/14 10:45:29;;;;;;;44.30;18.38;;;;;;;3.29;100.00;102116.00;5111484;28;20035;-68
2022/01/14 10:48:24;;;;;;;54.30;20.92;;;;;;;3.40;100.00;102118.91;5111293;28;20387;-68
2022/01/14 10:50:59;;;;;;;43.15;20.40;;;;;;;3.44;100.00;102120.81;5111647;28;20027;-69
2022/01/14 10:54:00;;;;;;;38.83;20.13;;;;;;;3.38;100.00;102117.97;5092261;28;20051;-68
2022/01/14 10:56:27;;;;;;;42.28;19.20;;;;;;;3.40;100.00;102118.91;5106412;28;20047;-68
2022/01/14 10:58:58;;;;;;;56.88;20.30;;;;;;;3.30;100.00;102095.81;5090131;28;20028;-68
2022/01/14 11:01:25;;;;;;;46.30;20.05;;;;;;;3.26;100.00;102100.09;5090941;28;20131;-68
2022/01/14 11:03:56;;;;;;;50.40;19.80;;;;;;;3.26;100.00;102094.84;5090822;28;20020;-68
2022/01/14 11:06:33;;;;;;;42.42;18.77;;;;;;;3.18;100.00;102095.47;5089718;28;20507;-68
2022/01/14 11:09:00;;;;;;;42.65;16.90;;;;;;;3.17;100.00;102094.56;5071752;28;20031;-68
2022/01/14 11:11:31;;;;;;;47.10;18.05;;;;;;;3.12;100.00;102090.91;5090336;28;20026;-68
2022/01/14 11:13:57;;;;;;;37.97;18.27;;;;;;;3.12;100.00;102066.34;5090997;28;20024;-68
2022/01/14 11:16:22;;;;;;;44.72;18.23;;;;;;;3.35;100.00;102087.22;5090617;28;20098;-68
2022/01/14 11:18:49;;;;;;;48.85;21.98;;;;;;;3.32;100.00;102078.34;5092851;28;20507;-68
2022/01/14 11:24:03;;;;;;;45.35;19.55;;;;;;;3.37;100.00;102071.50;5090177;28;20042;-68
2022/01/14 11:26:32;;;;;;;42.65;21.00;;;;;;;3.48;100.00;102068.31;5092800;28;20055;-68
2022/01/14 11:29:07;;;;;;;45.40;19.58;;;;;;;3.52;100.00;102062.31;5071572;28;20090;-68
2022/01/14 11:31:36;;;;;;;46.83;20.52;;;;;;;3.50;100.00;102060.47;5090396;28;20044;-68
2022/01/14 11:34:04;;;;;;;56.60;22.48;;;;;;;3.38;100.00;102039.06;5093133;28;20077;-68
2022/01/14 11:36:52;;;;;;;46.47;22.05;;;;;;;3.49;100.00;102050.81;5072037;28;20154;-68
2022/01/14 11:39:26;;;;;;;46.85;20.67;;;;;;;3.85;100.00;102036.94;5075782;28;20395;-68